sensor_id;sensor_type;location;lat;lon;timestamp;temperature;humidity
60027;DHT22;45891;53.006;6.512;2022-12-07T00:00:30;3.10;99.90
60027;DHT22;45891;53.006;6.512;2022-12-07T00:02:56;3.10;99.90
60027;DHT22;45891;53.006;6.512;2022-12-07T00:05:22;3.10;99.90
60027;DHT22;45891;53.006;6.512;2022-12-07T00:07:48;3.10;99.90
60027;DHT22;45891;53.006;6.512;2022-12-07T00:10:14;3.10;99.90
60027;DHT22;45891;53.006;6.512;2022-12-07T00:12:40;3.10;99.90
60027;DHT22;45891;53.006;6.512;2022-12-07T00:15:06;3.20;99.90
60027;DHT22;45891;53.006;6.512;2022-12-07T00:17:32;3.20;99.90
60027;DHT22;45891;53.006;6.512;2022-12-07T00:19:59;3.10;99.90
60027;DHT22;45891;53.006;6.512;2022-12-07T00:22:25;3.10;99.90
60027;DHT22;45891;53.006;6.512;2022-12-07T00:24:51;3.10;99.90
60027;DHT22;45891;53.006;6.512;2022-12-07T00:27:17;3.10;99.90
60027;DHT22;45891;53.006;6.512;2022-12-07T00:29:43;3.10;99.90
60027;DHT22;45891;53.006;6.512;2022-12-07T00:32:09;3.10;99.90
60027;DHT22;45891;53.006;6.512;2022-12-07T00:34:35;3.20;99.90
60027;DHT22;45891;53.006;6.512;2022-12-07T00:37:01;3.10;99.90
60027;DHT22;45891;53.006;6.512;2022-12-07T00:39:27;3.10;99.90
60027;DHT22;45891;53.006;6.512;2022-12-07T00:41:53;3.00;99.90
60027;DHT22;45891;53.006;6.512;2022-12-07T00:44:19;3.00;99.90
60027;DHT22;45891;53.006;6.512;2022-12-07T00:46:45;3.00;99.90
60027;DHT22;45891;53.006;6.512;2022-12-07T00:49:11;2.90;99.90
60027;DHT22;45891;53.006;6.512;2022-12-07T00:51:37;2.90;99.90
60027;DHT22;45891;53.006;6.512;2022-12-07T00:54:03;2.90;99.90
60027;DHT22;45891;53.006;6.512;2022-12-07T00:56:29;2.90;99.90
60027;DHT22;45891;53.006;6.512;2022-12-07T00:59:02;2.80;99.90
60027;DHT22;45891;53.006;6.512;2022-12-07T01:01:29;2.80;99.90
60027;DHT22;45891;53.006;6.512;2022-12-07T01:03:55;2.80;99.90
60027;DHT22;45891;53.006;6.512;2022-12-07T01:06:22;2.90;99.90
60027;DHT22;45891;53.006;6.512;2022-12-07T01:08:48;2.90;99.90
60027;DHT22;45891;53.006;6.512;2022-12-07T01:11:15;2.90;99.90
60027;DHT22;45891;53.006;6.512;2022-12-07T01:13:41;2.90;99.90
60027;DHT22;45891;53.006;6.512;2022-12-07T01:16:07;2.90;99.90
60027;DHT22;45891;53.006;6.512;2022-12-07T01:18:34;2.90;99.90
60027;DHT22;45891;53.006;6.512;2022-12-07T01:21:11;2.90;99.90
60027;DHT22;45891;53.006;6.512;2022-12-07T01:23:38;2.90;99.90
60027;DHT22;45891;53.006;6.512;2022-12-07T01:26:05;2.90;99.90
60027;DHT22;45891;53.006;6.512;2022-12-07T01:28:32;3.00;99.90
60027;DHT22;45891;53.006;6.512;2022-12-07T01:30:58;3.10;99.90
60027;DHT22;45891;53.006;6.512;2022-12-07T01:33:26;3.20;99.90
60027;DHT22;45891;53.006;6.512;2022-12-07T01:35:52;3.30;99.90
60027;DHT22;45891;53.006;6.512;2022-12-07T01:38:18;3.40;99.90
60027;DHT22;45891;53.006;6.512;2022-12-07T01:40:44;3.50;99.90
60027;DHT22;45891;53.006;6.512;2022-12-07T01:43:18;3.50;99.90
60027;DHT22;45891;53.006;6.512;2022-12-07T01:45:44;3.50;99.90
60027;DHT22;45891;53.006;6.512;2022-12-07T01:48:11;3.50;99.90
60027;DHT22;45891;53.006;6.512;2022-12-07T01:50:38;3.50;99.90
60027;DHT22;45891;53.006;6.512;2022-12-07T01:53:05;3.70;99.90
60027;DHT22;45891;53.006;6.512;2022-12-07T01:55:32;3.80;99.90
60027;DHT22;45891;53.006;6.512;2022-12-07T01:57:59;3.80;99.90
60027;DHT22;45891;53.006;6.512;2022-12-07T02:00:25;3.80;99.90
60027;DHT22;45891;53.006;6.512;2022-12-07T02:03:04;3.80;99.90
60027;DHT22;45891;53.006;6.512;2022-12-07T02:05:32;3.70;99.90
60027;DHT22;45891;53.006;6.512;2022-12-07T02:07:59;3.70;99.90
60027;DHT22;45891;53.006;6.512;2022-12-07T02:10:26;3.70;99.90
60027;DHT22;45891;53.006;6.512;2022-12-07T02:12:56;3.60;99.90
60027;DHT22;45891;53.006;6.512;2022-12-07T02:15:25;3.60;99.90
60027;DHT22;45891;53.006;6.512;2022-12-07T02:23:51;3.40;99.90
60027;DHT22;45891;53.006;6.512;2022-12-07T02:26:26;3.50;99.90
60027;DHT22;45891;53.006;6.512;2022-12-07T02:31:46;3.40;99.90
60027;DHT22;45891;53.006;6.512;2022-12-07T02:36:42;3.40;99.90
60027;DHT22;45891;53.006;6.512;2022-12-07T02:39:11;3.40;99.90
60027;DHT22;45891;53.006;6.512;2022-12-07T02:41:42;3.40;99.90
60027;DHT22;45891;53.006;6.512;2022-12-07T02:44:11;3.40;99.90
60027;DHT22;45891;53.006;6.512;2022-12-07T02:46:40;3.40;99.90
60027;DHT22;45891;53.006;6.512;2022-12-07T02:49:06;3.40;99.90
60027;DHT22;45891;53.006;6.512;2022-12-07T02:51:38;3.40;99.90
60027;DHT22;45891;53.006;6.512;2022-12-07T02:54:07;3.40;99.90
60027;DHT22;45891;53.006;6.512;2022-12-07T03:04:28;3.40;99.90
60027;DHT22;45891;53.006;6.512;2022-12-07T03:06:56;3.30;99.90
60027;DHT22;45891;53.006;6.512;2022-12-07T03:09:26;3.40;99.90
60027;DHT22;45891;53.006;6.512;2022-12-07T03:12:37;3.40;99.90
60027;DHT22;45891;53.006;6.512;2022-12-07T03:14:47;3.50;99.90
60027;DHT22;45891;53.006;6.512;2022-12-07T03:17:16;3.40;99.90
60027;DHT22;45891;53.006;6.512;2022-12-07T03:19:43;3.40;99.90
60027;DHT22;45891;53.006;6.512;2022-12-07T03:22:11;3.40;99.90
60027;DHT22;45891;53.006;6.512;2022-12-07T03:27:12;3.40;99.90
60027;DHT22;45891;53.006;6.512;2022-12-07T03:29:49;3.40;99.90
60027;DHT22;45891;53.006;6.512;2022-12-07T03:34:56;3.50;99.90
60027;DHT22;45891;53.006;6.512;2022-12-07T03:37:30;3.50;99.90
60027;DHT22;45891;53.006;6.512;2022-12-07T03:40:13;3.50;99.90
60027;DHT22;45891;53.006;6.512;2022-12-07T03:42:40;3.50;99.90
60027;DHT22;45891;53.006;6.512;2022-12-07T03:45:06;3.50;99.90
60027;DHT22;45891;53.006;6.512;2022-12-07T03:47:33;3.40;99.90
60027;DHT22;45891;53.006;6.512;2022-12-07T03:50:02;3.40;99.90
60027;DHT22;45891;53.006;6.512;2022-12-07T03:52:52;3.40;99.90
60027;DHT22;45891;53.006;6.512;2022-12-07T03:57:46;3.40;99.90
60027;DHT22;45891;53.006;6.512;2022-12-07T04:00:13;3.30;99.90
60027;DHT22;45891;53.006;6.512;2022-12-07T04:02:39;3.30;99.90
60027;DHT22;45891;53.006;6.512;2022-12-07T04:05:06;3.30;99.90
60027;DHT22;45891;53.006;6.512;2022-12-07T04:07:32;3.20;99.90
60027;DHT22;45891;53.006;6.512;2022-12-07T04:09:58;3.20;99.90
60027;DHT22;45891;53.006;6.512;2022-12-07T04:12:24;3.20;99.90
60027;DHT22;45891;53.006;6.512;2022-12-07T04:14:50;3.10;99.90
60027;DHT22;45891;53.006;6.512;2022-12-07T04:17:16;3.10;99.90
60027;DHT22;45891;53.006;6.512;2022-12-07T04:19:41;3.20;99.90
60027;DHT22;45891;53.006;6.512;2022-12-07T04:22:07;3.30;99.90
60027;DHT22;45891;53.006;6.512;2022-12-07T04:24:33;3.40;99.90
60027;DHT22;45891;53.006;6.512;2022-12-07T04:26:59;3.40;99.90
60027;DHT22;45891;53.006;6.512;2022-12-07T04:29:26;3.40;99.90
60027;DHT22;45891;53.006;6.512;2022-12-07T04:31:52;3.50;99.90
60027;DHT22;45891;53.006;6.512;2022-12-07T04:34:18;3.40;99.90
60027;DHT22;45891;53.006;6.512;2022-12-07T04:36:47;3.40;99.90
60027;DHT22;45891;53.006;6.512;2022-12-07T04:39:18;3.50;99.90
60027;DHT22;45891;53.006;6.512;2022-12-07T04:41:44;3.50;99.90
60027;DHT22;45891;53.006;6.512;2022-12-07T04:44:10;3.40;99.90
60027;DHT22;45891;53.006;6.512;2022-12-07T04:46:40;3.40;99.90
60027;DHT22;45891;53.006;6.512;2022-12-07T04:49:06;3.30;99.90
60027;DHT22;45891;53.006;6.512;2022-12-07T04:51:32;3.30;99.90
60027;DHT22;45891;53.006;6.512;2022-12-07T04:53:58;3.30;99.90
60027;DHT22;45891;53.006;6.512;2022-12-07T04:56:24;3.30;99.90
60027;DHT22;45891;53.006;6.512;2022-12-07T04:58:50;3.30;99.90
60027;DHT22;45891;53.006;6.512;2022-12-07T05:01:17;3.20;99.90
60027;DHT22;45891;53.006;6.512;2022-12-07T05:03:43;3.20;99.90
60027;DHT22;45891;53.006;6.512;2022-12-07T05:06:09;3.20;99.90
60027;DHT22;45891;53.006;6.512;2022-12-07T05:08:35;3.10;99.90
60027;DHT22;45891;53.006;6.512;2022-12-07T05:11:01;3.10;99.90
60027;DHT22;45891;53.006;6.512;2022-12-07T05:13:28;3.10;99.90
60027;DHT22;45891;53.006;6.512;2022-12-07T05:15:54;3.00;99.90
60027;DHT22;45891;53.006;6.512;2022-12-07T05:18:20;3.00;99.90
60027;DHT22;45891;53.006;6.512;2022-12-07T05:20:46;3.00;99.90
60027;DHT22;45891;53.006;6.512;2022-12-07T05:23:12;3.00;99.90
60027;DHT22;45891;53.006;6.512;2022-12-07T05:25:38;2.90;99.90
60027;DHT22;45891;53.006;6.512;2022-12-07T05:28:04;2.90;99.90
60027;DHT22;45891;53.006;6.512;2022-12-07T05:30:30;2.80;99.90
60027;DHT22;45891;53.006;6.512;2022-12-07T05:32:57;2.80;99.90
60027;DHT22;45891;53.006;6.512;2022-12-07T05:35:23;2.80;99.90
60027;DHT22;45891;53.006;6.512;2022-12-07T05:37:49;2.70;99.90
60027;DHT22;45891;53.006;6.512;2022-12-07T05:40:15;2.70;99.90
60027;DHT22;45891;53.006;6.512;2022-12-07T05:42:41;2.70;99.90
60027;DHT22;45891;53.006;6.512;2022-12-07T05:45:08;2.60;99.90
60027;DHT22;45891;53.006;6.512;2022-12-07T05:47:34;2.60;99.90
60027;DHT22;45891;53.006;6.512;2022-12-07T05:50:02;2.60;99.90
60027;DHT22;45891;53.006;6.512;2022-12-07T05:52:28;2.60;99.90
60027;DHT22;45891;53.006;6.512;2022-12-07T05:54:54;2.60;99.90
60027;DHT22;45891;53.006;6.512;2022-12-07T05:57:20;2.50;99.90
60027;DHT22;45891;53.006;6.512;2022-12-07T05:59:46;2.50;99.90
60027;DHT22;45891;53.006;6.512;2022-12-07T06:02:13;2.50;99.90
60027;DHT22;45891;53.006;6.512;2022-12-07T06:04:40;2.60;99.90
60027;DHT22;45891;53.006;6.512;2022-12-07T06:07:06;2.50;99.90
60027;DHT22;45891;53.006;6.512;2022-12-07T06:09:32;2.60;99.90
60027;DHT22;45891;53.006;6.512;2022-12-07T06:11:59;2.60;99.90
60027;DHT22;45891;53.006;6.512;2022-12-07T06:14:43;2.60;99.90
60027;DHT22;45891;53.006;6.512;2022-12-07T06:17:10;2.60;99.90
60027;DHT22;45891;53.006;6.512;2022-12-07T06:19:36;2.60;99.90
60027;DHT22;45891;53.006;6.512;2022-12-07T06:22:02;2.60;99.90
60027;DHT22;45891;53.006;6.512;2022-12-07T06:24:30;2.60;99.90
60027;DHT22;45891;53.006;6.512;2022-12-07T06:26:56;2.60;99.90
60027;DHT22;45891;53.006;6.512;2022-12-07T06:29:22;2.60;99.90
60027;DHT22;45891;53.006;6.512;2022-12-07T06:31:48;2.60;99.90
60027;DHT22;45891;53.006;6.512;2022-12-07T06:34:15;2.60;99.90
60027;DHT22;45891;53.006;6.512;2022-12-07T06:36:42;2.60;99.90
60027;DHT22;45891;53.006;6.512;2022-12-07T06:39:08;2.60;99.90
60027;DHT22;45891;53.006;6.512;2022-12-07T06:41:35;2.60;99.90
60027;DHT22;45891;53.006;6.512;2022-12-07T06:44:02;2.70;99.90
60027;DHT22;45891;53.006;6.512;2022-12-07T06:46:28;2.80;99.90
60027;DHT22;45891;53.006;6.512;2022-12-07T06:48:54;2.90;99.90
60027;DHT22;45891;53.006;6.512;2022-12-07T06:51:20;2.90;99.90
60027;DHT22;45891;53.006;6.512;2022-12-07T06:53:46;3.00;99.90
60027;DHT22;45891;53.006;6.512;2022-12-07T06:56:12;2.90;99.90
60027;DHT22;45891;53.006;6.512;2022-12-07T06:58:38;2.90;99.90
60027;DHT22;45891;53.006;6.512;2022-12-07T07:01:11;3.00;99.90
60027;DHT22;45891;53.006;6.512;2022-12-07T07:03:38;3.00;99.90
60027;DHT22;45891;53.006;6.512;2022-12-07T07:06:04;2.90;99.90
60027;DHT22;45891;53.006;6.512;2022-12-07T07:08:30;2.90;99.90
60027;DHT22;45891;53.006;6.512;2022-12-07T07:10:57;2.80;99.90
60027;DHT22;45891;53.006;6.512;2022-12-07T07:13:22;2.80;99.90
60027;DHT22;45891;53.006;6.512;2022-12-07T07:15:48;2.70;99.90
60027;DHT22;45891;53.006;6.512;2022-12-07T07:18:14;2.70;99.90
60027;DHT22;45891;53.006;6.512;2022-12-07T07:20:40;2.70;99.90
60027;DHT22;45891;53.006;6.512;2022-12-07T07:23:06;2.60;99.90
60027;DHT22;45891;53.006;6.512;2022-12-07T07:25:33;2.60;99.90
60027;DHT22;45891;53.006;6.512;2022-12-07T07:27:59;2.70;99.90
60027;DHT22;45891;53.006;6.512;2022-12-07T07:30:26;2.70;99.90
60027;DHT22;45891;53.006;6.512;2022-12-07T07:32:56;2.70;99.90
60027;DHT22;45891;53.006;6.512;2022-12-07T07:35:22;2.70;99.90
60027;DHT22;45891;53.006;6.512;2022-12-07T07:37:47;2.70;99.90
60027;DHT22;45891;53.006;6.512;2022-12-07T07:40:14;2.70;99.90
60027;DHT22;45891;53.006;6.512;2022-12-07T07:42:49;2.70;99.90
60027;DHT22;45891;53.006;6.512;2022-12-07T07:45:15;2.70;99.90
60027;DHT22;45891;53.006;6.512;2022-12-07T07:47:41;2.70;99.90
60027;DHT22;45891;53.006;6.512;2022-12-07T07:50:07;2.70;99.90
60027;DHT22;45891;53.006;6.512;2022-12-07T07:52:33;2.70;99.90
60027;DHT22;45891;53.006;6.512;2022-12-07T07:54:59;2.60;99.90
60027;DHT22;45891;53.006;6.512;2022-12-07T07:57:25;2.60;99.90
60027;DHT22;45891;53.006;6.512;2022-12-07T07:59:51;2.60;99.90
60027;DHT22;45891;53.006;6.512;2022-12-07T08:02:18;2.50;99.90
60027;DHT22;45891;53.006;6.512;2022-12-07T08:04:44;2.60;99.90
60027;DHT22;45891;53.006;6.512;2022-12-07T08:07:10;2.50;99.90
60027;DHT22;45891;53.006;6.512;2022-12-07T08:09:37;2.50;99.90
60027;DHT22;45891;53.006;6.512;2022-12-07T08:12:03;2.50;99.90
60027;DHT22;45891;53.006;6.512;2022-12-07T08:14:29;2.40;99.90
60027;DHT22;45891;53.006;6.512;2022-12-07T08:16:55;2.50;99.90
60027;DHT22;45891;53.006;6.512;2022-12-07T08:19:21;2.40;99.90
60027;DHT22;45891;53.006;6.512;2022-12-07T08:21:47;2.40;99.90
60027;DHT22;45891;53.006;6.512;2022-12-07T08:24:13;2.50;99.90
60027;DHT22;45891;53.006;6.512;2022-12-07T08:26:39;2.50;99.90
60027;DHT22;45891;53.006;6.512;2022-12-07T08:29:05;2.70;99.90
60027;DHT22;45891;53.006;6.512;2022-12-07T08:31:32;2.70;99.90
60027;DHT22;45891;53.006;6.512;2022-12-07T08:33:58;2.90;99.90
60027;DHT22;45891;53.006;6.512;2022-12-07T08:36:24;2.90;99.90
60027;DHT22;45891;53.006;6.512;2022-12-07T08:38:49;3.00;99.90
60027;DHT22;45891;53.006;6.512;2022-12-07T08:41:16;3.00;99.90
60027;DHT22;45891;53.006;6.512;2022-12-07T08:43:42;3.00;99.90
60027;DHT22;45891;53.006;6.512;2022-12-07T08:46:13;3.00;99.90
60027;DHT22;45891;53.006;6.512;2022-12-07T08:48:41;3.00;99.90
60027;DHT22;45891;53.006;6.512;2022-12-07T08:51:09;2.90;99.90
60027;DHT22;45891;53.006;6.512;2022-12-07T08:53:35;2.90;99.90
60027;DHT22;45891;53.006;6.512;2022-12-07T08:56:02;2.90;99.90
60027;DHT22;45891;53.006;6.512;2022-12-07T08:58:28;2.80;99.90
60027;DHT22;45891;53.006;6.512;2022-12-07T09:00:54;2.80;99.90
60027;DHT22;45891;53.006;6.512;2022-12-07T09:03:20;2.80;99.90
60027;DHT22;45891;53.006;6.512;2022-12-07T09:05:46;2.80;99.90
60027;DHT22;45891;53.006;6.512;2022-12-07T09:08:12;2.80;99.90
60027;DHT22;45891;53.006;6.512;2022-12-07T09:10:38;2.80;99.90
60027;DHT22;45891;53.006;6.512;2022-12-07T09:13:04;2.90;99.90
60027;DHT22;45891;53.006;6.512;2022-12-07T09:15:30;2.90;99.90
60027;DHT22;45891;53.006;6.512;2022-12-07T09:17:57;3.00;99.90
60027;DHT22;45891;53.006;6.512;2022-12-07T09:20:23;3.10;99.90
60027;DHT22;45891;53.006;6.512;2022-12-07T09:22:48;3.20;99.90
60027;DHT22;45891;53.006;6.512;2022-12-07T09:25:14;3.30;99.90
60027;DHT22;45891;53.006;6.512;2022-12-07T09:27:41;3.30;99.90
60027;DHT22;45891;53.006;6.512;2022-12-07T09:30:07;3.40;99.90
60027;DHT22;45891;53.006;6.512;2022-12-07T09:32:33;3.50;99.90
60027;DHT22;45891;53.006;6.512;2022-12-07T09:34:59;3.60;99.90
60027;DHT22;45891;53.006;6.512;2022-12-07T09:37:25;3.60;99.90
60027;DHT22;45891;53.006;6.512;2022-12-07T09:39:51;3.60;99.90
60027;DHT22;45891;53.006;6.512;2022-12-07T09:42:26;3.70;99.90
60027;DHT22;45891;53.006;6.512;2022-12-07T09:44:53;3.60;99.90
60027;DHT22;45891;53.006;6.512;2022-12-07T09:47:19;3.60;99.90
60027;DHT22;45891;53.006;6.512;2022-12-07T09:49:45;3.70;99.90
60027;DHT22;45891;53.006;6.512;2022-12-07T09:54:43;3.80;99.90
60027;DHT22;45891;53.006;6.512;2022-12-07T09:57:11;3.80;99.90
60027;DHT22;45891;53.006;6.512;2022-12-07T09:59:38;3.80;99.90
60027;DHT22;45891;53.006;6.512;2022-12-07T10:02:19;3.80;99.90
60027;DHT22;45891;53.006;6.512;2022-12-07T10:04:47;3.90;99.90
60027;DHT22;45891;53.006;6.512;2022-12-07T10:07:13;3.90;99.90
60027;DHT22;45891;53.006;6.512;2022-12-07T10:09:39;3.90;99.90
60027;DHT22;45891;53.006;6.512;2022-12-07T10:12:08;4.00;99.90
60027;DHT22;45891;53.006;6.512;2022-12-07T10:14:36;4.00;99.90
60027;DHT22;45891;53.006;6.512;2022-12-07T10:17:02;4.10;99.90
60027;DHT22;45891;53.006;6.512;2022-12-07T10:19:29;4.20;99.90
60027;DHT22;45891;53.006;6.512;2022-12-07T10:24:24;4.20;99.90
60027;DHT22;45891;53.006;6.512;2022-12-07T10:26:51;4.20;99.90
60027;DHT22;45891;53.006;6.512;2022-12-07T10:29:19;4.30;99.90
60027;DHT22;45891;53.006;6.512;2022-12-07T10:31:46;4.40;99.90
60027;DHT22;45891;53.006;6.512;2022-12-07T10:37:06;4.60;99.90
60027;DHT22;45891;53.006;6.512;2022-12-07T10:39:39;4.70;99.90
60027;DHT22;45891;53.006;6.512;2022-12-07T10:42:09;4.80;99.90
60027;DHT22;45891;53.006;6.512;2022-12-07T10:44:40;4.80;99.90
60027;DHT22;45891;53.006;6.512;2022-12-07T10:52:16;4.80;99.90
60027;DHT22;45891;53.006;6.512;2022-12-07T11:00:03;4.90;99.90
60027;DHT22;45891;53.006;6.512;2022-12-07T11:02:40;5.00;99.90
60027;DHT22;45891;53.006;6.512;2022-12-07T11:05:19;5.10;99.90
60027;DHT22;45891;53.006;6.512;2022-12-07T11:15:53;5.30;99.90
60027;DHT22;45891;53.006;6.512;2022-12-07T11:21:23;5.30;99.90
60027;DHT22;45891;53.006;6.512;2022-12-07T11:23:46;5.40;99.90
60027;DHT22;45891;53.006;6.512;2022-12-07T11:26:34;5.40;99.90
60027;DHT22;45891;53.006;6.512;2022-12-07T11:31:48;5.60;99.90
60027;DHT22;45891;53.006;6.512;2022-12-07T11:36:51;5.80;99.90
60027;DHT22;45891;53.006;6.512;2022-12-07T11:41:43;5.90;99.90
60027;DHT22;45891;53.006;6.512;2022-12-07T11:51:59;6.30;99.90
60027;DHT22;45891;53.006;6.512;2022-12-07T11:54:28;6.30;99.90
60027;DHT22;45891;53.006;6.512;2022-12-07T11:56:56;6.40;99.90
60027;DHT22;45891;53.006;6.512;2022-12-07T11:59:30;6.40;99.90
60027;DHT22;45891;53.006;6.512;2022-12-07T12:02:14;6.40;99.90
60027;DHT22;45891;53.006;6.512;2022-12-07T12:07:15;6.50;99.90
60027;DHT22;45891;53.006;6.512;2022-12-07T12:09:49;6.50;99.90
60027;DHT22;45891;53.006;6.512;2022-12-07T12:20:20;6.90;99.90
60027;DHT22;45891;53.006;6.512;2022-12-07T12:27:53;7.00;99.90
60027;DHT22;45891;53.006;6.512;2022-12-07T12:33:06;7.80;99.90
60027;DHT22;45891;53.006;6.512;2022-12-07T12:35:38;7.60;99.90
60027;DHT22;45891;53.006;6.512;2022-12-07T12:40:48;7.10;99.90
60027;DHT22;45891;53.006;6.512;2022-12-07T12:48:44;6.40;99.90
60027;DHT22;45891;53.006;6.512;2022-12-07T12:54:03;6.10;99.90
60027;DHT22;45891;53.006;6.512;2022-12-07T12:56:35;5.80;99.90
60027;DHT22;45891;53.006;6.512;2022-12-07T13:15:44;4.40;99.90
60027;DHT22;45891;53.006;6.512;2022-12-07T13:23:25;4.30;99.90
60027;DHT22;45891;53.006;6.512;2022-12-07T13:25:54;4.30;99.90
60027;DHT22;45891;53.006;6.512;2022-12-07T13:28:22;4.30;99.90
60027;DHT22;45891;53.006;6.512;2022-12-07T13:30:59;4.40;99.90
60027;DHT22;45891;53.006;6.512;2022-12-07T13:33:25;4.40;99.90
60027;DHT22;45891;53.006;6.512;2022-12-07T13:35:53;4.40;99.90
60027;DHT22;45891;53.006;6.512;2022-12-07T13:38:29;4.40;99.90
60027;DHT22;45891;53.006;6.512;2022-12-07T13:46:20;4.40;99.90
60027;DHT22;45891;53.006;6.512;2022-12-07T13:48:50;4.40;99.90
60027;DHT22;45891;53.006;6.512;2022-12-07T13:51:24;4.40;99.90
60027;DHT22;45891;53.006;6.512;2022-12-07T13:53:54;4.30;99.90
60027;DHT22;45891;53.006;6.512;2022-12-07T13:56:21;4.40;99.90
60027;DHT22;45891;53.006;6.512;2022-12-07T13:58:47;4.40;99.90
60027;DHT22;45891;53.006;6.512;2022-12-07T14:01:13;4.40;99.90
60027;DHT22;45891;53.006;6.512;2022-12-07T14:03:39;4.30;99.90
60027;DHT22;45891;53.006;6.512;2022-12-07T14:06:07;4.30;99.90
60027;DHT22;45891;53.006;6.512;2022-12-07T14:08:37;4.40;99.90
60027;DHT22;45891;53.006;6.512;2022-12-07T14:11:03;4.30;99.90
60027;DHT22;45891;53.006;6.512;2022-12-07T14:13:33;4.30;99.90
60027;DHT22;45891;53.006;6.512;2022-12-07T14:16:00;4.30;99.90
60027;DHT22;45891;53.006;6.512;2022-12-07T14:23:30;4.20;99.90
60027;DHT22;45891;53.006;6.512;2022-12-07T14:26:15;4.20;99.90
60027;DHT22;45891;53.006;6.512;2022-12-07T14:28:42;4.20;99.90
60027;DHT22;45891;53.006;6.512;2022-12-07T14:31:20;4.20;99.90
60027;DHT22;45891;53.006;6.512;2022-12-07T14:33:46;4.20;99.90
60027;DHT22;45891;53.006;6.512;2022-12-07T14:36:13;4.10;99.90
60027;DHT22;45891;53.006;6.512;2022-12-07T14:38:39;4.20;99.90
60027;DHT22;45891;53.006;6.512;2022-12-07T14:41:06;4.10;99.90
60027;DHT22;45891;53.006;6.512;2022-12-07T14:43:56;4.10;99.90
60027;DHT22;45891;53.006;6.512;2022-12-07T14:46:22;4.20;99.90
60027;DHT22;45891;53.006;6.512;2022-12-07T14:48:48;4.20;99.90
60027;DHT22;45891;53.006;6.512;2022-12-07T14:51:14;4.10;99.90
60027;DHT22;45891;53.006;6.512;2022-12-07T14:53:41;4.20;99.90
60027;DHT22;45891;53.006;6.512;2022-12-07T14:56:08;4.10;99.90
60027;DHT22;45891;53.006;6.512;2022-12-07T14:58:34;4.10;99.90
60027;DHT22;45891;53.006;6.512;2022-12-07T15:01:00;4.10;99.90
60027;DHT22;45891;53.006;6.512;2022-12-07T15:03:26;4.20;99.90
60027;DHT22;45891;53.006;6.512;2022-12-07T15:05:52;4.10;99.90
60027;DHT22;45891;53.006;6.512;2022-12-07T15:08:18;4.20;99.90
60027;DHT22;45891;53.006;6.512;2022-12-07T15:10:44;4.20;99.90
60027;DHT22;45891;53.006;6.512;2022-12-07T15:13:11;4.20;99.90
60027;DHT22;45891;53.006;6.512;2022-12-07T15:15:56;4.20;99.90
60027;DHT22;45891;53.006;6.512;2022-12-07T15:18:22;4.20;99.90
60027;DHT22;45891;53.006;6.512;2022-12-07T15:20:49;4.20;99.90
60027;DHT22;45891;53.006;6.512;2022-12-07T15:23:15;4.20;99.90
60027;DHT22;45891;53.006;6.512;2022-12-07T15:25:41;4.20;99.90
60027;DHT22;45891;53.006;6.512;2022-12-07T15:28:07;4.10;99.90
60027;DHT22;45891;53.006;6.512;2022-12-07T15:30:33;4.10;99.90
60027;DHT22;45891;53.006;6.512;2022-12-07T15:32:59;4.10;99.90
60027;DHT22;45891;53.006;6.512;2022-12-07T15:35:26;4.00;99.90
60027;DHT22;45891;53.006;6.512;2022-12-07T15:37:52;4.00;99.90
60027;DHT22;45891;53.006;6.512;2022-12-07T15:40:17;3.90;99.90
60027;DHT22;45891;53.006;6.512;2022-12-07T15:42:43;3.90;99.90
60027;DHT22;45891;53.006;6.512;2022-12-07T15:45:09;3.80;99.90
60027;DHT22;45891;53.006;6.512;2022-12-07T15:47:37;3.80;99.90
60027;DHT22;45891;53.006;6.512;2022-12-07T15:50:04;3.80;99.90
60027;DHT22;45891;53.006;6.512;2022-12-07T15:52:30;3.80;99.90
60027;DHT22;45891;53.006;6.512;2022-12-07T15:54:56;3.80;99.90
60027;DHT22;45891;53.006;6.512;2022-12-07T15:57:22;3.70;99.90
60027;DHT22;45891;53.006;6.512;2022-12-07T15:59:48;3.70;99.90
60027;DHT22;45891;53.006;6.512;2022-12-07T16:02:14;3.70;99.90
60027;DHT22;45891;53.006;6.512;2022-12-07T16:04:40;3.70;99.90
60027;DHT22;45891;53.006;6.512;2022-12-07T16:07:06;3.60;99.90
60027;DHT22;45891;53.006;6.512;2022-12-07T16:09:32;3.60;99.90
60027;DHT22;45891;53.006;6.512;2022-12-07T16:11:58;3.60;99.90
60027;DHT22;45891;53.006;6.512;2022-12-07T16:14:24;3.60;99.90
60027;DHT22;45891;53.006;6.512;2022-12-07T16:16:50;3.60;99.90
60027;DHT22;45891;53.006;6.512;2022-12-07T16:19:16;3.60;99.90
60027;DHT22;45891;53.006;6.512;2022-12-07T16:21:42;3.60;99.90
60027;DHT22;45891;53.006;6.512;2022-12-07T16:24:08;3.60;99.90
60027;DHT22;45891;53.006;6.512;2022-12-07T16:26:35;3.60;99.90
60027;DHT22;45891;53.006;6.512;2022-12-07T16:29:02;3.60;99.90
60027;DHT22;45891;53.006;6.512;2022-12-07T16:31:28;3.60;99.90
60027;DHT22;45891;53.006;6.512;2022-12-07T16:33:54;3.60;99.90
60027;DHT22;45891;53.006;6.512;2022-12-07T16:36:21;3.60;99.90
60027;DHT22;45891;53.006;6.512;2022-12-07T16:38:49;3.60;99.90
60027;DHT22;45891;53.006;6.512;2022-12-07T16:41:15;3.60;99.90
60027;DHT22;45891;53.006;6.512;2022-12-07T16:43:42;3.60;99.90
60027;DHT22;45891;53.006;6.512;2022-12-07T16:46:08;3.60;99.90
60027;DHT22;45891;53.006;6.512;2022-12-07T16:48:37;3.60;99.90
60027;DHT22;45891;53.006;6.512;2022-12-07T16:51:07;3.50;99.90
60027;DHT22;45891;53.006;6.512;2022-12-07T16:53:37;3.50;99.90
60027;DHT22;45891;53.006;6.512;2022-12-07T16:56:03;3.50;99.90
60027;DHT22;45891;53.006;6.512;2022-12-07T16:58:30;3.50;99.90
60027;DHT22;45891;53.006;6.512;2022-12-07T17:00:56;3.50;99.90
60027;DHT22;45891;53.006;6.512;2022-12-07T17:03:22;3.50;99.90
60027;DHT22;45891;53.006;6.512;2022-12-07T17:05:48;3.50;99.90
60027;DHT22;45891;53.006;6.512;2022-12-07T17:08:14;3.50;99.90
60027;DHT22;45891;53.006;6.512;2022-12-07T17:10:42;3.50;99.90
60027;DHT22;45891;53.006;6.512;2022-12-07T17:13:08;3.50;99.90
60027;DHT22;45891;53.006;6.512;2022-12-07T17:18:22;3.40;99.90
60027;DHT22;45891;53.006;6.512;2022-12-07T17:20:48;3.50;99.90
60027;DHT22;45891;53.006;6.512;2022-12-07T17:23:14;3.40;99.90
60027;DHT22;45891;53.006;6.512;2022-12-07T17:25:39;3.40;99.90
60027;DHT22;45891;53.006;6.512;2022-12-07T17:28:05;3.40;99.90
60027;DHT22;45891;53.006;6.512;2022-12-07T17:30:31;3.40;99.90
60027;DHT22;45891;53.006;6.512;2022-12-07T17:32:57;3.30;99.90
60027;DHT22;45891;53.006;6.512;2022-12-07T17:35:23;3.30;99.90
60027;DHT22;45891;53.006;6.512;2022-12-07T17:37:49;3.30;99.90
60027;DHT22;45891;53.006;6.512;2022-12-07T17:40:15;3.30;99.90
60027;DHT22;45891;53.006;6.512;2022-12-07T17:42:41;3.30;99.90
60027;DHT22;45891;53.006;6.512;2022-12-07T17:45:12;3.30;99.90
60027;DHT22;45891;53.006;6.512;2022-12-07T17:47:38;3.30;99.90
60027;DHT22;45891;53.006;6.512;2022-12-07T17:50:05;3.30;99.90
60027;DHT22;45891;53.006;6.512;2022-12-07T17:52:32;3.30;99.90
60027;DHT22;45891;53.006;6.512;2022-12-07T17:55:17;3.30;99.90
60027;DHT22;45891;53.006;6.512;2022-12-07T17:57:43;3.40;99.90
60027;DHT22;45891;53.006;6.512;2022-12-07T18:00:09;3.30;99.90
60027;DHT22;45891;53.006;6.512;2022-12-07T18:02:36;3.30;99.90